Aérodrome :
LOGIN :

S'inscrire | Disclaimer

   EN    FR    IT 

 










Légende :    VFR   VFR Marginal   IFR   IFR Intensif   IFR Très Intensif
Visi : 
Plafond : 
>= 8 km
>= 3000ft
5 à 8 km
1000 à 3000 ft
1500m à 5 km
500 à 1000 ft
800 à 1500m
200 à 500 ft
< 800m
< 200 ft
Symboles :   Orages  Brouillard  Fortes neiges  Fortes précipitations  Vent > 20 kt
SIGMETs :   Divers  Orages  Givrage  Turbulence  Onde Orograph.  Cendres Volcan.






- Altitude de l'aérodrome : 1299 ft


EDTY - Adolf Würth

DERNIER METAR :
  • 280750Z 08001KT 9999 -SN FEW033 M01/M01 Q0996

METARs EXPIRÉS :
  • 280720Z AUTO 08003KT 9999 // SCT028/// OVC056/// M01/M01 Q0996
  • 280650Z AUTO VRB01KT 9999 // BKN028/// BKN032/// OVC056/// M01/M01 Q0995
  • 280620Z AUTO 09001KT 9999 // FEW026/// BKN030/// OVC049/// M01/M01 Q0995
  • 280550Z AUTO 09002KT 9999 // SCT024/// SCT031/// OVC050/// M01/M01 Q0995
  • 280520Z AUTO VRB02KT 9999 // FEW022/// OVC044/// M01/M02 Q0995

Prévision TAF périmée.



MET'MAP, la Météo Aéronautique d'un coup d'oeil ! - Copyright ORBIFLY Décembre 2007 - Disclaimer

ORBIFLY MET'MAP TEAM :

Programmation & Développement : Alexandra Zaïnal
Sur une idée originale de : Baudouin d'Aumeries
Assistance à la programmation : Marc-Olivier Méhu
Soutien technique & logistique : Manuel Goepfert

Contact : metmap@orbifly.com




SOURCES & CREDITS :

   NOAA